Aviation Digital Data Service (ADDS)

Output produced by METARs form (1812 UTC 14 August 2018)
found at http://www.aviationweather.gov/adds/metars/
 
LKCV 141800Z 28006KT CAVOK 23/12 Q1013 NOSIG RMK BLU BLU
TAF LKCV 141700Z 1418/1518 30006KT CAVOK 
     BECMG 1506/1508 32012KT 
     TEMPO 1509/1513 SCT040
       
LKCV 141800Z 28006KT CAVOK 23/12 Q1013 NOSIG RMK BLU BLU
TAF LKCV 141700Z 1418/1518 30006KT CAVOK 
     BECMG 1506/1508 32012KT 
     TEMPO 1509/1513 SCT040
       
LKKB 141800Z 30012KT CAVOK 23/11 Q1013 NOSIG
TAF LKKB 141700Z 1418/1518 30008KT CAVOK 
     TEMPO 1510/1516 32012KT SCT040 
     BECMG 1516/1518 VRB02KT
       
LKKU 141400Z 35005KT 9999 -RA FEW026 SCT045 25/16 Q1011
LKKV 141800Z 26008KT 220V290 CAVOK 18/12 Q1016
TAF LKKV 141700Z 1418/1600 26008KT CAVOK 
     PROB30 
     TEMPO 1511/1517 33010KT 7000 SHRA SCT040TCU 
     BECMG 1517/1519 VRB02KT
       
LKLN 141800Z AUTO 29006KT 250V340 9999 FEW074 BKN088 22/11 Q1015
LKMT 141800Z 08004KT 9999 VCSH FEW050TCU 23/16 Q1012 NOSIG
TAF LKMT 141700Z 1418/1600 VRB02KT CAVOK 
     BECMG 1422/1500 3000 BR NSC 
     BECMG 1500/1502 1200 BR NSC 
     PROB40 
     TEMPO 1502/1505 0700 FG VV002 
     BECMG 1506/1508 05005KT CAVOK 
     BECMG 1511/1513 22005KT 
     PROB40 
     TEMPO 1511/1517 7000 SHRA SCT035TCU 
     BECMG 1517/1519 VRB02KT
       
LKNA 141800Z 29009KT CAVOK 23/11 Q1014 NOSIG RMK BLU BLU
TAF LKNA 141700Z 1418/1518 30008KT CAVOK 
     TEMPO 1507/1518 33012G22KT
       
LKPD 141800Z 30006KT CAVOK 24/10 Q1013 NOSIG RMK BLU BLU
TAF LKPD 141700Z 1418/1518 28008KT CAVOK 
     TEMPO 1418/1422 28006KT 
     TEMPO 1422/1510 SCT040 
     TEMPO 1508/1517 30012G22KT
       
LKPR 141800Z 29011KT CAVOK 22/11 Q1014 NOSIG
TAF LKPR 141700Z 1418/1600 29008KT CAVOK 
     PROB30 
     TEMPO 1511/1516 7000 SHRA SCT045TCU 
     BECMG 1509/1512 36010KT 
     BECMG 1516/1518 VRB02KT
       
LKTB 141800Z 30009KT CAVOK 26/12 Q1012 NOSIG
TAF LKTB 141700Z 1418/1600 30009KT CAVOK 
     BECMG 1509/1512 36008KT 
     BECMG 1522/1600 VRB02KT
       
LKVO 141600Z 28011KT 240V340 CAVOK 25/09 Q1013
LKKV 141800Z 26008KT 220V290 CAVOK 18/12 Q1016
TAF LKKV 141700Z 1418/1600 26008KT CAVOK 
     PROB30 
     TEMPO 1511/1517 33010KT 7000 SHRA SCT040TCU 
     BECMG 1517/1519 VRB02KT
       
LKKB 141800Z 30012KT CAVOK 23/11 Q1013 NOSIG
TAF LKKB 141700Z 1418/1518 30008KT CAVOK 
     TEMPO 1510/1516 32012KT SCT040 
     BECMG 1516/1518 VRB02KT
       
LKKU 141400Z 35005KT 9999 -RA FEW026 SCT045 25/16 Q1011
LKLN 141800Z AUTO 29006KT 250V340 9999 FEW074 BKN088 22/11 Q1015
LKMT 141800Z 08004KT 9999 VCSH FEW050TCU 23/16 Q1012 NOSIG
TAF LKMT 141700Z 1418/1600 VRB02KT CAVOK 
     BECMG 1422/1500 3000 BR NSC 
     BECMG 1500/1502 1200 BR NSC 
     PROB40 
     TEMPO 1502/1505 0700 FG VV002 
     BECMG 1506/1508 05005KT CAVOK 
     BECMG 1511/1513 22005KT 
     PROB40 
     TEMPO 1511/1517 7000 SHRA SCT035TCU 
     BECMG 1517/1519 VRB02KT
       
LKNA 141800Z 29009KT CAVOK 23/11 Q1014 NOSIG RMK BLU BLU
TAF LKNA 141700Z 1418/1518 30008KT CAVOK 
     TEMPO 1507/1518 33012G22KT
       
LKPD 141800Z 30006KT CAVOK 24/10 Q1013 NOSIG RMK BLU BLU
TAF LKPD 141700Z 1418/1518 28008KT CAVOK 
     TEMPO 1418/1422 28006KT 
     TEMPO 1422/1510 SCT040 
     TEMPO 1508/1517 30012G22KT
       
LKPR 141800Z 29011KT CAVOK 22/11 Q1014 NOSIG
TAF LKPR 141700Z 1418/1600 29008KT CAVOK 
     PROB30 
     TEMPO 1511/1516 7000 SHRA SCT045TCU 
     BECMG 1509/1512 36010KT 
     BECMG 1516/1518 VRB02KT
       
LKTB 141800Z 30009KT CAVOK 26/12 Q1012 NOSIG
TAF LKTB 141700Z 1418/1600 30009KT CAVOK 
     BECMG 1509/1512 36008KT 
     BECMG 1522/1600 VRB02KT
       
LKVO 141600Z 28011KT 240V340 CAVOK 25/09 Q1013